Terminal Aerodrome Forecast
Issued by NWS Los Angeles, CA

Home | Current Version | Previous Version | Text Only | Print | Product List | Glossary On
Versions: 1 2 3 4 5 6 7 8 9 10 11 12 13 14 15 16 17 18 19 20 21 22 23 24 25 26 27 28 29
000
FTUS46 KLOX 061123
TAFSMX
TAF
KSMX 061123Z 0612/0712 VRB03KT P6SM OVC009
     FM061500 VRB03KT P6SM OVC012
     FM061830 31007KT P6SM SCT015
     FM062100 31015KT P6SM SKC
     FM070300 31007KT P6SM BKN010
     FM070700 VRB03KT P6SM OVC008=

USA.gov is the U.S. government's official web portal to all federal, state and local government web resources and services.